Time;durP1;ratioP1;P1;durP2;ratioP2;P2;SDS_P1;SDS_P2;PMS_P1;PMS_P2;Temp;Humidity;BMP_temperature;BMP_pressure;BME280_temperature;BME280_humidity;BME280_pressure;Samples;Min_cycle;Max_cycle;Signal;HPM_P1;HPM_P2
2021/04/17 00:01:19;;;;;;;2.40;1.20;;;;;;;1.56;95.50;101926.25;4932670;28;20220;-69
2021/04/17 00:03:44;;;;;;;3.87;1.40;;;;;;;1.77;95.29;101923.66;4884422;29;20194;-69
2021/04/17 00:06:13;;;;;;;3.77;1.60;;;;;;;1.75;94.06;101909.66;4916052;29;20274;-68
2021/04/17 00:08:40;;;;;;;2.73;1.40;;;;;;;1.73;94.58;101911.69;4900897;29;20195;-68
2021/04/17 00:11:06;;;;;;;2.50;1.63;;;;;;;1.51;96.39;101912.59;4899941;29;20227;-68
2021/04/17 00:13:32;;;;;;;4.37;1.30;;;;;;;1.45;97.12;101918.69;4899865;29;20666;-69
2021/04/17 00:15:58;;;;;;;2.03;1.43;;;;;;;1.52;98.35;101913.41;4899968;29;20239;-69
2021/04/17 00:18:26;;;;;;;2.53;1.43;;;;;;;1.72;97.72;101910.00;4933325;29;20795;-68
2021/04/17 00:20:51;;;;;;;3.50;1.43;;;;;;;1.78;96.37;101909.28;4918895;29;20219;-68
2021/04/17 00:23:17;;;;;;;2.47;1.50;;;;;;;1.74;95.15;101907.97;4912108;29;20572;-68
2021/04/17 00:25:42;;;;;;;2.77;1.07;;;;;;;1.77;93.99;101904.94;4907019;29;20252;-68
2021/04/17 00:28:08;;;;;;;2.90;1.40;;;;;;;1.76;93.64;101901.44;4916132;29;20650;-70
2021/04/17 00:30:34;;;;;;;2.20;1.40;;;;;;;1.78;92.92;101891.34;4905377;29;20228;-69
2021/04/17 00:32:59;;;;;;;2.73;1.50;;;;;;;1.73;92.26;101895.59;4914652;29;20647;-68
2021/04/17 00:35:25;;;;;;;2.60;1.50;;;;;;;1.76;92.18;101900.56;4914572;29;20226;-69
2021/04/17 00:37:57;;;;;;;3.07;1.40;;;;;;;1.74;92.79;101902.59;4931765;29;20215;-68
2021/04/17 00:40:29;;;;;;;4.23;1.30;;;;;;;1.90;93.04;101897.91;4930974;29;20681;-69
2021/04/17 00:42:54;;;;;;;4.13;1.47;;;;;;;1.92;92.40;101902.06;4932267;29;20192;-68
2021/04/17 00:45:20;;;;;;;2.63;1.67;;;;;;;2.06;92.81;101914.59;4931129;29;20728;-68
2021/04/17 00:47:50;;;;;;;2.43;1.50;;;;;;;2.02;91.82;101897.25;4931853;29;20175;-68
2021/04/17 00:50:18;;;;;;;3.43;1.50;;;;;;;1.89;91.76;101895.41;4915071;28;20206;-69
2021/04/17 00:52:43;;;;;;;2.27;1.53;;;;;;;2.10;91.89;101910.53;4899130;29;20188;-68
2021/04/17 00:55:10;;;;;;;3.10;1.30;;;;;;;2.12;91.10;101892.41;4915709;29;20619;-67
2021/04/17 00:57:36;;;;;;;6.33;1.57;;;;;;;2.40;90.27;101901.38;4931749;29;20220;-68
2021/04/17 01:00:07;;;;;;;2.40;1.73;;;;;;;2.47;88.85;101892.44;4931614;29;20207;-67
2021/04/17 01:02:36;;;;;;;2.93;1.47;;;;;;;2.46;88.34;101885.41;4898997;29;20227;-68
2021/04/17 01:05:03;;;;;;;3.57;1.60;;;;;;;2.37;88.39;101885.72;4900575;29;20246;-67
2021/04/17 01:07:59;;;;;;;2.53;1.47;;;;;;;2.25;88.41;101889.88;4899684;29;20216;-67
2021/04/17 01:10:35;;;;;;;3.30;1.40;;;;;;;2.32;89.14;101878.22;4916391;29;20337;-71
2021/04/17 01:13:01;;;;;;;2.57;1.57;;;;;;;2.38;88.85;101893.56;4899392;29;20191;-67
2021/04/17 01:15:29;;;;;;;2.23;1.47;;;;;;;2.31;89.51;101891.84;4899478;29;20629;-68
2021/04/17 01:17:56;;;;;;;4.40;1.60;;;;;;;2.37;88.94;101885.72;4900429;29;20211;-68
2021/04/17 01:20:50;;;;;;;4.23;1.63;;;;;;;2.24;89.20;101882.06;4899728;29;20252;-69
2021/04/17 01:23:27;;;;;;;3.03;1.60;;;;;;;2.16;90.08;101888.38;4917840;29;20700;-69
2021/04/17 01:26:05;;;;;;;4.97;1.50;;;;;;;2.17;90.99;101890.00;4905949;29;20239;-69
2021/04/17 01:28:34;;;;;;;1.70;1.20;;;;;;;2.21;91.60;101880.56;4890085;29;20211;-69
2021/04/17 01:31:02;;;;;;;4.97;2.00;;;;;;;2.27;92.20;101879.81;4905171;29;20232;-68
2021/04/17 01:33:32;;;;;;;2.63;1.43;;;;;;;2.22;91.80;101882.25;4887464;29;20606;-67
2021/04/17 01:35:59;;;;;;;3.53;1.73;;;;;;;2.37;92.19;101885.72;4897527;29;20226;-68
2021/04/17 01:38:25;;;;;;;4.00;1.60;;;;;;;2.30;93.34;101874.91;4897884;29;20254;-68
2021/04/17 01:40:57;;;;;;;1.93;1.33;;;;;;;2.35;92.83;101877.03;4914141;29;20311;-68
2021/04/17 01:43:25;;;;;;;2.57;1.47;;;;;;;2.28;93.34;101878.81;4880881;29;20195;-67
2021/04/17 01:45:56;;;;;;;4.40;2.00;;;;;;;2.35;93.04;101879.72;4912642;29;20220;-68
2021/04/17 01:48:26;;;;;;;7.63;1.87;;;;;;;2.46;92.52;101876.53;4900948;29;20324;-68
2021/04/17 01:50:51;;;;;;;3.27;1.70;;;;;;;2.43;92.88;101871.53;4928698;29;20236;-68
2021/04/17 01:53:19;;;;;;;2.47;1.70;;;;;;;2.45;93.05;101872.19;4914634;29;20242;-68
2021/04/17 01:55:47;;;;;;;2.70;1.50;;;;;;;2.68;92.19;101863.75;4902846;29;20235;-68
2021/04/17 01:58:26;;;;;;;2.73;1.30;;;;;;;2.70;91.63;101863.56;4903095;29;20223;-70
2021/04/17 02:00:55;;;;;;;3.67;1.60;;;;;;;2.60;91.04;101859.53;4918009;29;20318;-69
2021/04/17 02:03:23;;;;;;;2.30;1.57;;;;;;;2.48;91.04;101866.44;4917564;29;20643;-68
2021/04/17 02:05:49;;;;;;;3.70;1.83;;;;;;;2.46;91.18;101857.78;4902354;29;20622;-68
2021/04/17 02:08:15;;;;;;;3.40;1.90;;;;;;;2.42;92.09;101856.50;4903038;29;20188;-68
2021/04/17 02:10:41;;;;;;;3.63;1.67;;;;;;;2.42;92.40;101857.31;4902332;29;20306;-68
2021/04/17 02:13:07;;;;;;;2.53;1.60;;;;;;;2.33;93.89;101857.63;4917761;29;20187;-68
2021/04/17 02:15:35;;;;;;;5.67;1.90;;;;;;;2.43;94.06;101850.09;4933678;29;20250;-68
2021/04/17 02:18:05;;;;;;;2.17;1.60;;;;;;;2.42;95.00;101846.59;4935270;29;20219;-69
2021/04/17 02:20:32;;;;;;;2.83;1.47;;;;;;;2.31;94.01;101848.94;4917417;29;20314;-68
2021/04/17 02:22:58;;;;;;;3.63;2.00;;;;;;;2.16;94.09;101850.84;4934337;29;20200;-68
2021/04/17 02:25:23;;;;;;;3.53;1.60;;;;;;;2.11;95.76;101847.91;4917829;29;20237;-68
2021/04/17 02:27:51;;;;;;;4.53;2.00;;;;;;;2.31;95.93;101844.41;4918505;29;20182;-68
2021/04/17 02:30:17;;;;;;;2.30;1.50;;;;;;;2.38;94.73;101837.28;4920282;28;20760;-68
2021/04/17 02:32:43;;;;;;;3.67;1.77;;;;;;;2.35;96.11;101829.59;4886171;29;20184;-68
2021/04/17 02:35:09;;;;;;;2.40;1.77;;;;;;;2.57;95.88;101833.13;4933480;28;20281;-68
2021/04/17 02:37:34;;;;;;;3.33;1.80;;;;;;;2.64;96.00;101829.50;4917718;29;20220;-68
2021/04/17 02:40:00;;;;;;;4.50;1.83;;;;;;;2.83;95.30;101826.97;4902484;29;20211;-68
2021/04/17 02:42:25;;;;;;;3.10;2.00;;;;;;;2.84;94.21;101828.63;4931105;29;20227;-68
2021/04/17 02:44:51;;;;;;;5.90;2.50;;;;;;;2.91;94.22;101826.84;4917859;29;20243;-68
2021/04/17 02:47:17;;;;;;;7.93;4.13;;;;;;;3.18;92.67;101823.31;4901658;29;20726;-67
2021/04/17 02:49:45;;;;;;;6.37;3.03;;;;;;;3.14;92.24;101827.41;4921407;29;20677;-68
2021/04/17 02:52:13;;;;;;;5.37;3.00;;;;;;;3.03;92.09;101824.44;4932292;29;20732;-68
2021/04/17 02:54:41;;;;;;;4.10;1.87;;;;;;;2.94;94.61;101821.06;4898512;29;20180;-68
2021/04/17 02:57:12;;;;;;;3.77;1.80;;;;;;;3.09;94.49;101821.78;4911718;29;20579;-68
2021/04/17 02:59:40;;;;;;;3.33;1.80;;;;;;;3.18;94.95;101817.94;4917218;29;20212;-67
2021/04/17 03:02:05;;;;;;;4.97;1.80;;;;;;;3.13;94.39;101820.38;4900667;29;20231;-68
2021/04/17 03:04:36;;;;;;;3.43;1.77;;;;;;;3.12;95.02;101814.19;4917907;29;20753;-68
2021/04/17 03:07:01;;;;;;;3.03;1.60;;;;;;;3.30;94.84;101816.38;4897938;29;20306;-70
2021/04/17 03:09:27;;;;;;;4.53;1.70;;;;;;;3.44;93.95;101809.03;4909514;29;20207;-69
2021/04/17 03:11:52;;;;;;;2.57;1.57;;;;;;;3.35;94.42;101806.72;4915954;29;20234;-68
2021/04/17 03:14:23;;;;;;;2.63;1.63;;;;;;;3.31;95.77;101801.91;4917242;29;20187;-68
2021/04/17 03:16:49;;;;;;;4.20;1.70;;;;;;;3.40;95.46;101801.56;4929174;29;20220;-68
2021/04/17 03:19:15;;;;;;;5.07;1.90;;;;;;;3.50;94.90;101802.88;4897723;29;20212;-68
2021/04/17 03:21:41;;;;;;;3.63;1.70;;;;;;;3.61;94.80;101794.25;4923928;29;20359;-68
2021/04/17 03:24:09;;;;;;;3.13;1.97;;;;;;;3.55;95.53;101799.56;4932725;29;20196;-68
2021/04/17 03:26:34;;;;;;;2.67;1.53;;;;;;;3.67;95.23;101798.00;4916569;29;20744;-68
2021/04/17 03:29:00;;;;;;;2.63;1.87;;;;;;;3.74;94.91;101798.84;4932913;29;20251;-68
2021/04/17 03:31:33;;;;;;;7.07;1.90;;;;;;;3.81;94.73;101795.16;4916187;29;20233;-68
2021/04/17 03:33:59;;;;;;;4.73;1.93;;;;;;;3.80;94.76;101790.81;4911933;29;20184;-68
2021/04/17 03:36:24;;;;;;;4.40;2.20;;;;;;;3.69;95.40;101786.00;4911491;29;20227;-68
2021/04/17 03:38:50;;;;;;;5.00;1.80;;;;;;;3.59;96.20;101780.19;4916798;29;20211;-68
2021/04/17 03:41:18;;;;;;;3.87;2.10;;;;;;;3.50;96.50;101781.38;4901119;29;20283;-68
2021/04/17 03:43:44;;;;;;;3.93;2.10;;;;;;;3.55;95.97;101780.78;4932993;29;20188;-68
2021/04/17 03:46:09;;;;;;;4.03;2.10;;;;;;;3.59;95.69;101782.88;4916162;29;20231;-68
2021/04/17 03:48:38;;;;;;;3.20;1.77;;;;;;;3.46;95.32;101785.50;4916800;29;20207;-68
2021/04/17 03:51:06;;;;;;;4.27;1.77;;;;;;;3.53;95.11;101783.66;4932923;29;20235;-69
2021/04/17 03:53:32;;;;;;;2.70;1.77;;;;;;;3.61;94.31;101785.38;4932314;29;20192;-67
2021/04/17 03:55:57;;;;;;;3.63;1.77;;;;;;;3.49;94.13;101779.72;4931982;29;20235;-68
2021/04/17 03:58:23;;;;;;;2.03;1.73;;;;;;;3.66;93.91;101786.38;4932322;29;20226;-67
2021/04/17 04:00:48;;;;;;;3.30;2.07;;;;;;;3.55;94.15;101778.94;4931638;29;20242;-68
2021/04/17 04:03:14;;;;;;;2.17;1.80;;;;;;;3.57;93.96;101776.88;4915958;29;20689;-68
2021/04/17 04:05:42;;;;;;;2.40;1.83;;;;;;;3.67;93.88;101782.69;4931690;29;20234;-68
2021/04/17 04:08:07;;;;;;;4.60;2.00;;;;;;;3.73;94.05;101779.19;4932207;29;20180;-69
2021/04/17 04:10:35;;;;;;;2.50;1.90;;;;;;;3.72;92.66;101785.63;4914314;29;20228;-67
2021/04/17 04:13:01;;;;;;;3.33;1.80;;;;;;;3.68;93.34;101772.78;4900125;29;20221;-68
2021/04/17 04:15:27;;;;;;;3.43;1.80;;;;;;;3.98;92.69;101774.97;4915825;29;20306;-69
2021/04/17 04:17:58;;;;;;;4.03;1.90;;;;;;;4.16;90.41;101784.09;4916599;29;20215;-69
2021/04/17 04:20:24;;;;;;;4.50;2.17;;;;;;;4.11;90.27;101794.63;4933188;29;20725;-68
2021/04/17 04:22:50;;;;;;;3.50;2.10;;;;;;;4.13;91.07;101781.81;4931269;29;20183;-67
2021/04/17 04:25:15;;;;;;;4.43;2.20;;;;;;;4.15;92.09;101781.63;4932942;29;20194;-68
2021/04/17 04:27:43;;;;;;;4.07;2.00;;;;;;;4.14;92.38;101774.56;4916388;29;20198;-68
2021/04/17 04:30:10;;;;;;;3.93;2.10;;;;;;;4.25;92.33;101778.34;4916589;28;20711;-67
2021/04/17 04:32:35;;;;;;;6.27;2.30;;;;;;;4.30;92.76;101781.25;4915350;29;20184;-69
2021/04/17 04:35:01;;;;;;;3.53;2.10;;;;;;;4.29;92.79;101779.56;4931947;29;20184;-68
2021/04/17 04:37:27;;;;;;;4.57;2.10;;;;;;;4.36;92.54;101776.88;4930992;29;20239;-69
2021/04/17 04:39:52;;;;;;;5.57;2.13;;;;;;;4.45;92.12;101776.50;4900297;29;20219;-69
2021/04/17 04:42:20;;;;;;;3.40;2.30;;;;;;;4.49;89.39;101775.06;4898781;29;20238;-70
2021/04/17 04:44:46;;;;;;;4.07;2.27;;;;;;;4.90;88.77;101786.44;4900888;29;20219;-68
2021/04/17 04:47:11;;;;;;;4.03;2.20;;;;;;;4.76;88.47;101784.78;4915352;29;20815;-68
2021/04/17 04:49:37;;;;;;;4.07;1.97;;;;;;;4.78;89.12;101785.38;4916079;29;20250;-69
2021/04/17 04:52:03;;;;;;;5.03;2.57;;;;;;;4.96;88.02;101788.28;4930348;29;20231;-68
2021/04/17 04:54:32;;;;;;;3.70;2.33;;;;;;;5.25;85.17;101789.47;4915817;29;20619;-68
2021/04/17 04:56:57;;;;;;;2.63;1.97;;;;;;;5.35;82.10;101796.09;4947056;29;20234;-69
2021/04/17 04:59:23;;;;;;;4.27;2.17;;;;;;;5.42;81.28;101786.16;4931504;29;20219;-69
2021/04/17 05:01:48;;;;;;;4.37;2.57;;;;;;;5.41;79.43;101779.09;4898651;29;20239;-69
2021/04/17 05:04:14;;;;;;;5.63;2.30;;;;;;;5.33;79.18;101786.59;4931507;29;20195;-69
2021/04/17 05:06:40;;;;;;;5.90;2.20;;;;;;;5.10;80.68;101786.19;4899558;29;20219;-69
2021/04/17 05:09:05;;;;;;;3.37;2.10;;;;;;;5.35;80.39;101785.31;4933124;29;20188;-70
2021/04/17 05:11:35;;;;;;;5.37;2.43;;;;;;;5.63;77.54;101779.66;4915728;29;20698;-68
2021/04/17 05:14:03;;;;;;;3.10;1.97;;;;;;;5.49;76.83;101791.50;4900869;29;20197;-68
2021/04/17 05:16:28;;;;;;;4.50;2.07;;;;;;;5.47;76.87;101794.41;4893479;29;20223;-68
2021/04/17 05:18:54;;;;;;;4.47;2.20;;;;;;;5.61;76.25;101787.13;4900268;29;20227;-68
2021/04/17 05:21:20;;;;;;;5.70;2.90;;;;;;;5.48;76.54;101781.78;4901178;29;20242;-68
2021/04/17 05:23:46;;;;;;;4.33;2.40;;;;;;;5.39;77.25;101791.13;4887674;29;20194;-68
2021/04/17 05:26:11;;;;;;;4.67;2.40;;;;;;;5.51;76.42;101784.03;4935951;29;20297;-67
2021/04/17 05:28:39;;;;;;;4.33;2.37;;;;;;;5.36;76.91;101786.16;4904865;29;20227;-69
2021/04/17 05:31:07;;;;;;;4.53;2.50;;;;;;;5.47;77.24;101780.09;4919056;29;20259;-68
2021/04/17 05:33:33;;;;;;;4.63;2.23;;;;;;;5.67;75.76;101778.19;4888096;29;20686;-68
2021/04/17 05:36:03;;;;;;;4.03;2.40;;;;;;;5.81;75.13;101775.25;4904050;29;20232;-68
2021/04/17 05:38:31;;;;;;;2.87;2.20;;;;;;;5.94;75.09;101772.50;4935893;29;20266;-69
2021/04/17 05:40:56;;;;;;;6.80;2.50;;;;;;;5.74;74.66;101775.28;4936467;28;20235;-68
2021/04/17 05:43:25;;;;;;;3.10;2.30;;;;;;;5.69;74.65;101776.09;4936259;29;20665;-67
2021/04/17 05:45:50;;;;;;;3.67;2.30;;;;;;;5.66;75.41;101774.66;4919124;29;20227;-69
2021/04/17 05:48:18;;;;;;;4.53;2.50;;;;;;;5.71;75.13;101774.00;4918921;29;20190;-68
2021/04/17 05:50:44;;;;;;;4.30;2.40;;;;;;;5.87;74.42;101771.69;4936275;28;20231;-69
2021/04/17 05:53:09;;;;;;;5.13;2.80;;;;;;;6.12;73.83;101762.66;4888285;29;20196;-68
2021/04/17 05:55:35;;;;;;;4.43;2.03;;;;;;;6.10;73.20;101770.13;4936451;29;20223;-67
2021/04/17 05:58:16;;;;;;;4.10;2.10;;;;;;;6.17;72.92;101771.75;4936518;29;20639;-70
2021/04/17 06:00:57;;;;;;;3.57;2.40;;;;;;;5.97;74.12;101780.13;4933862;29;20298;-70
2021/04/17 06:03:27;;;;;;;3.97;2.50;;;;;;;5.74;74.33;101769.88;4924374;29;20205;-72
2021/04/17 06:05:54;;;;;;;3.27;2.33;;;;;;;5.72;75.44;101770.28;4924017;29;20300;-69
2021/04/17 06:08:22;;;;;;;3.30;2.10;;;;;;;5.96;75.49;101773.13;4935885;29;20190;-69
2021/04/17 06:10:52;;;;;;;4.20;2.70;;;;;;;5.99;74.35;101778.91;4918654;29;20232;-68
2021/04/17 06:13:18;;;;;;;4.60;2.50;;;;;;;5.68;75.86;101769.03;4919051;29;20645;-68
2021/04/17 06:15:46;;;;;;;6.20;2.70;;;;;;;5.73;76.36;101766.56;4918021;29;20223;-68
2021/04/17 06:18:14;;;;;;;3.30;2.20;;;;;;;5.75;76.70;101760.78;4935696;29;20219;-68
2021/04/17 06:20:40;;;;;;;3.43;2.60;;;;;;;6.07;74.59;101754.38;4934715;29;20759;-69
2021/04/17 06:23:06;;;;;;;5.67;2.57;;;;;;;6.13;74.40;101758.06;4902019;29;20204;-70
2021/04/17 06:25:36;;;;;;;5.73;2.40;;;;;;;6.20;74.54;101759.69;4904622;29;20282;-69
2021/04/17 06:28:08;;;;;;;4.37;2.70;;;;;;;6.10;74.55;101753.09;4919552;29;20188;-72
2021/04/17 06:30:36;;;;;;;3.20;2.43;;;;;;;6.20;74.24;101751.59;4920629;29;20282;-69
2021/04/17 06:33:05;;;;;;;5.53;2.57;;;;;;;6.13;74.53;101747.28;4906797;29;20192;-71
2021/04/17 06:35:33;;;;;;;5.33;3.47;;;;;;;6.04;75.12;101749.41;4923636;29;20227;-69
2021/04/17 06:37:59;;;;;;;5.53;2.80;;;;;;;6.01;75.52;101754.44;4943587;29;20291;-69
2021/04/17 06:40:27;;;;;;;5.07;2.63;;;;;;;6.22;74.41;101747.63;4942526;29;20204;-69
2021/04/17 06:42:52;;;;;;;3.50;2.50;;;;;;;6.37;73.36;101748.13;4911732;29;20188;-69
2021/04/17 06:45:20;;;;;;;4.23;2.80;;;;;;;6.54;73.19;101751.97;4924857;29;20700;-68
2021/04/17 06:47:47;;;;;;;5.40;2.70;;;;;;;6.65;72.67;101738.59;4936366;29;20183;-70
2021/04/17 06:50:13;;;;;;;4.77;2.63;;;;;;;6.64;71.96;101731.53;4918869;29;20218;-68
2021/04/17 06:52:39;;;;;;;4.40;2.43;;;;;;;6.52;72.22;101744.09;4933306;29;20188;-68
2021/04/17 06:55:08;;;;;;;5.23;2.77;;;;;;;6.76;71.75;101737.88;4917817;29;20191;-68
2021/04/17 06:57:34;;;;;;;4.93;2.60;;;;;;;6.86;72.07;101738.19;4934819;29;20678;-68
2021/04/17 07:00:01;;;;;;;5.57;2.80;;;;;;;7.13;70.10;101742.31;4928340;29;20215;-69
2021/04/17 07:02:29;;;;;;;4.00;2.80;;;;;;;6.89;70.50;101729.66;4913330;29;20231;-69
2021/04/17 07:04:54;;;;;;;6.37;2.97;;;;;;;6.85;71.11;101741.97;4931716;29;20191;-69
2021/04/17 07:07:22;;;;;;;5.23;3.30;;;;;;;6.99;71.05;101729.97;4917022;29;20219;-68
2021/04/17 07:09:48;;;;;;;4.10;2.47;;;;;;;7.03;69.41;101732.00;4917068;29;20324;-70
2021/04/17 07:12:14;;;;;;;7.27;2.77;;;;;;;6.88;70.76;101728.00;4915372;29;20240;-69
2021/04/17 07:14:44;;;;;;;4.27;2.70;;;;;;;7.04;70.49;101727.44;4901437;29;20192;-68
2021/04/17 07:17:10;;;;;;;4.27;2.60;;;;;;;7.20;70.05;101726.81;4914277;29;20228;-68
2021/04/17 07:19:50;;;;;;;5.37;2.60;;;;;;;7.49;69.92;101726.91;4924511;29;20211;-68
2021/04/17 07:22:26;;;;;;;4.27;2.70;;;;;;;7.89;68.15;101718.88;4900301;29;20250;-68
2021/04/17 07:24:56;;;;;;;5.30;2.30;;;;;;;7.78;67.88;101716.97;4918347;29;20183;-69
2021/04/17 07:27:41;;;;;;;3.73;2.73;;;;;;;8.03;66.54;101708.72;4902221;29;20251;-69
2021/04/17 07:30:17;;;;;;;4.00;2.47;;;;;;;8.22;66.25;101703.88;4934258;29;20763;-70
2021/04/17 07:32:46;;;;;;;4.33;2.57;;;;;;;8.02;67.15;101701.66;4932728;29;20567;-67
2021/04/17 07:35:19;;;;;;;3.93;2.50;;;;;;;8.09;67.02;101704.09;4917299;29;20240;-68
2021/04/17 07:37:46;;;;;;;4.17;2.50;;;;;;;8.14;66.17;101698.78;4897189;29;20728;-67
2021/04/17 07:40:23;;;;;;;3.77;2.60;;;;;;;8.44;64.66;101694.13;4909965;29;20216;-68
2021/04/17 07:42:59;;;;;;;4.07;2.40;;;;;;;8.59;63.00;101698.06;4926303;29;20187;-69
2021/04/17 07:45:28;;;;;;;4.73;2.50;;;;;;;8.40;64.56;101703.78;4911913;29;20271;-69
2021/04/17 07:47:58;;;;;;;3.07;2.60;;;;;;;8.62;64.25;101704.88;4926079;29;20645;-69
2021/04/17 07:50:31;;;;;;;3.47;2.37;;;;;;;8.85;63.42;101698.44;4911661;29;20287;-69
2021/04/17 07:53:00;;;;;;;6.00;2.60;;;;;;;9.05;62.02;101704.31;4929436;29;20196;-69
2021/04/17 07:55:31;;;;;;;3.73;2.73;;;;;;;9.26;61.66;101687.44;4921756;29;20228;-68
2021/04/17 07:58:00;;;;;;;5.80;2.47;;;;;;;9.16;60.52;101689.09;4915706;29;20223;-70
2021/04/17 08:00:27;;;;;;;4.47;2.40;;;;;;;9.26;60.79;101679.28;4932248;28;20207;-67
2021/04/17 08:02:57;;;;;;;5.13;2.20;;;;;;;9.59;60.26;101691.13;4930114;29;20713;-70
2021/04/17 08:05:27;;;;;;;4.03;2.40;;;;;;;9.82;58.66;101674.78;4927904;29;20223;-69
2021/04/17 08:07:55;;;;;;;3.73;2.20;;;;;;;10.23;57.87;101680.72;4901994;29;20196;-67
2021/04/17 08:10:21;;;;;;;4.57;2.50;;;;;;;10.21;58.42;101677.44;4904015;29;20604;-67
2021/04/17 08:12:51;;;;;;;3.07;2.40;;;;;;;9.86;57.59;101674.03;4931223;29;20200;-68
2021/04/17 08:15:18;;;;;;;5.20;2.43;;;;;;;9.65;58.93;101666.59;4889819;29;20654;-67
2021/04/17 08:17:44;;;;;;;3.40;2.33;;;;;;;9.88;58.86;101666.47;4890206;29;20220;-67
2021/04/17 08:20:12;;;;;;;3.87;2.30;;;;;;;9.39;60.92;101681.75;4900436;29;20234;-68
2021/04/17 08:22:38;;;;;;;3.17;2.27;;;;;;;9.69;60.03;101673.16;4916175;29;20180;-68
2021/04/17 08:25:05;;;;;;;4.67;2.37;;;;;;;9.48;60.09;101681.13;4914977;29;20764;-67
2021/04/17 08:27:31;;;;;;;3.73;2.17;;;;;;;9.51;61.56;101679.84;4931766;29;20184;-68
2021/04/17 08:29:57;;;;;;;3.80;2.20;;;;;;;9.70;60.61;101669.38;4916919;29;20231;-67
2021/04/17 08:32:35;;;;;;;4.70;2.57;;;;;;;10.06;59.69;101671.72;4901642;29;20643;-70
2021/04/17 08:35:17;;;;;;;3.07;2.10;;;;;;;9.82;57.13;101672.88;4902915;29;20254;-67
2021/04/17 08:37:55;;;;;;;11.10;7.13;;;;;;;10.17;57.43;101668.13;4915726;29;20297;-68
2021/04/17 08:40:35;;;;;;;5.10;2.92;;;;;;;10.47;57.05;101670.28;4919433;29;20443;-70
2021/04/17 08:43:10;;;;;;;4.70;2.47;;;;;;;10.17;56.03;101666.25;4924514;29;20187;-67
2021/04/17 08:45:36;;;;;;;2.40;2.00;;;;;;;10.24;55.50;101666.09;4932579;29;20238;-68
2021/04/17 08:48:03;;;;;;;4.50;2.00;;;;;;;10.13;54.21;101678.66;4900946;29;20195;-68
2021/04/17 08:50:32;;;;;;;5.27;2.30;;;;;;;10.12;53.89;101676.19;4912290;29;20234;-67
2021/04/17 08:53:09;;;;;;;4.33;1.87;;;;;;;9.90;54.84;101674.38;4926502;29;20195;-69
2021/04/17 08:55:35;;;;;;;4.43;2.20;;;;;;;10.00;55.83;101670.00;4911771;29;20314;-70
2021/04/17 08:58:19;;;;;;;3.87;2.17;;;;;;;10.13;56.02;101664.28;4907545;29;20295;-68
2021/04/17 09:00:51;;;;;;;2.50;2.20;;;;;;;10.30;55.58;101665.09;4901074;29;20291;-67
2021/04/17 09:03:51;;;;;;;3.27;1.90;;;;;;;10.56;54.35;101662.56;4911374;29;20198;-68
2021/04/17 09:06:23;;;;;;;4.87;2.00;;;;;;;10.61;53.56;101660.75;4892080;29;20224;-68
2021/04/17 09:09:19;;;;;;;3.17;2.17;;;;;;;10.72;53.33;101665.25;4929084;29;20210;-70
2021/04/17 09:11:46;;;;;;;3.97;1.73;;;;;;;10.67;53.55;101653.50;4914571;29;20231;-68
2021/04/17 09:14:32;;;;;;;2.20;1.70;;;;;;;10.67;50.06;101651.59;4900252;29;20261;-68
2021/04/17 09:16:59;;;;;;;2.37;1.77;;;;;;;10.96;50.64;101653.13;4915618;29;20258;-69
2021/04/17 09:19:43;;;;;;;4.10;2.07;;;;;;;10.79;50.57;101657.75;4930787;29;20327;-70
2021/04/17 09:22:24;;;;;;;3.40;1.73;;;;;;;11.07;51.92;101641.31;4930213;29;20223;-67
2021/04/17 09:25:06;;;;;;;3.53;2.00;;;;;;;11.77;52.14;101635.69;4931919;29;20274;-68
2021/04/17 09:27:35;;;;;;;3.53;1.87;;;;;;;11.58;48.70;101642.56;4905138;29;20222;-68
2021/04/17 09:30:04;;;;;;;2.30;1.60;;;;;;;11.05;47.67;101638.03;4905871;29;20218;-66
2021/04/17 09:32:30;;;;;;;2.80;1.83;;;;;;;11.40;49.09;101631.94;4925849;29;20612;-67
2021/04/17 09:34:56;;;;;;;5.03;1.90;;;;;;;11.74;46.18;101633.47;4898281;29;20748;-68
2021/04/17 09:37:25;;;;;;;3.67;1.70;;;;;;;11.85;46.30;101630.63;4898173;29;20231;-68
2021/04/17 09:39:53;;;;;;;3.03;1.90;;;;;;;11.93;46.46;101628.22;4912415;29;20271;-68
2021/04/17 09:42:33;;;;;;;4.17;1.50;;;;;;;12.04;46.62;101627.25;4902123;29;20793;-67
2021/04/17 09:44:58;;;;;;;3.83;1.60;;;;;;;12.44;46.38;101624.88;4893567;29;20191;-67
2021/04/17 09:47:27;;;;;;;3.30;1.67;;;;;;;12.28;44.75;101622.31;4923908;29;20315;-67
2021/04/17 09:49:54;;;;;;;3.47;1.90;;;;;;;11.87;44.87;101633.06;4912170;29;20287;-67
2021/04/17 09:52:22;;;;;;;2.30;1.40;;;;;;;11.87;43.50;101635.78;4910915;29;20238;-67
2021/04/17 09:54:58;;;;;;;2.23;1.23;;;;;;;11.98;44.22;101632.94;4915459;29;20215;-68
2021/04/17 09:57:24;;;;;;;2.87;1.20;;;;;;;11.72;42.55;101630.16;4930773;29;20729;-68
2021/04/17 09:59:51;;;;;;;1.90;1.20;;;;;;;11.76;41.67;101626.69;4931798;29;20200;-69
2021/04/17 10:02:17;;;;;;;1.80;1.30;;;;;;;11.83;41.63;101623.75;4910658;29;20369;-69
2021/04/17 10:05:02;;;;;;;3.73;1.50;;;;;;;11.38;40.90;101623.22;4924529;29;20271;-69
2021/04/17 10:07:44;;;;;;;3.50;1.10;;;;;;;11.30;41.31;101620.97;4907512;29;20231;-70
2021/04/17 10:10:12;;;;;;;1.60;0.93;;;;;;;11.37;40.88;101621.59;4913000;29;20300;-70
2021/04/17 10:12:54;;;;;;;1.37;1.00;;;;;;;11.41;39.84;101616.44;4884256;29;20650;-68
2021/04/17 10:15:26;;;;;;;2.73;1.00;;;;;;;11.62;40.67;101613.75;4932424;29;20195;-68
2021/04/17 10:17:54;;;;;;;1.50;1.17;;;;;;;11.64;40.52;101617.03;4918142;29;20310;-68
2021/04/17 10:20:22;;;;;;;2.07;1.13;;;;;;;11.90;40.00;101621.66;4899557;29;20216;-67
2021/04/17 10:22:59;;;;;;;1.40;1.10;;;;;;;11.96;39.39;101616.84;4915916;29;20183;-68
2021/04/17 10:25:43;;;;;;;2.73;1.00;;;;;;;12.17;38.84;101613.22;4912824;29;20228;-70
2021/04/17 10:28:29;;;;;;;3.00;1.30;;;;;;;12.52;40.64;101614.31;4914973;29;20184;-69
2021/04/17 10:31:02;;;;;;;2.27;1.50;;;;;;;12.45;40.86;101610.16;4900688;29;20256;-68
2021/04/17 10:33:29;;;;;;;2.47;1.67;;;;;;;12.22;41.10;101626.06;4930127;29;20188;-68
2021/04/17 10:35:58;;;;;;;2.97;1.43;;;;;;;12.30;41.32;101624.47;4925594;29;20220;-68
2021/04/17 10:38:39;;;;;;;2.47;1.30;;;;;;;12.38;41.30;101617.72;4912562;29;20219;-68
2021/04/17 10:41:05;;;;;;;2.37;1.40;;;;;;;12.58;40.67;101610.56;4915744;29;20215;-69
2021/04/17 10:43:31;;;;;;;3.50;1.50;;;;;;;12.52;40.25;101600.69;4903201;29;20761;-69
2021/04/17 10:46:01;;;;;;;2.57;1.73;;;;;;;12.74;40.85;101602.19;4913500;29;20228;-68
2021/04/17 10:48:30;;;;;;;2.00;1.57;;;;;;;12.63;41.25;101601.59;4925924;29;20184;-68
2021/04/17 10:51:07;;;;;;;2.70;1.50;;;;;;;12.36;41.88;101595.38;4925618;29;20239;-68
2021/04/17 10:53:40;;;;;;;4.20;1.70;;;;;;;12.30;42.57;101601.88;4914263;29;20834;-69
2021/04/17 10:56:15;;;;;;;6.03;1.60;;;;;;;12.36;41.94;101598.94;4928503;29;20224;-68
2021/04/17 10:58:41;;;;;;;2.27;1.50;;;;;;;12.92;41.43;101588.16;4932576;29;20210;-68
2021/04/17 11:01:13;;;;;;;1.93;1.47;;;;;;;13.47;40.49;101576.38;4914351;29;20297;-68
2021/04/17 11:03:46;;;;;;;4.00;1.70;;;;;;;14.02;39.69;101584.72;4939126;29;20251;-68
2021/04/17 11:06:13;;;;;;;2.07;1.60;;;;;;;13.89;40.25;101588.78;4917484;29;20713;-68
2021/04/17 11:08:38;;;;;;;1.53;1.40;;;;;;;13.92;39.96;101587.44;4929490;29;20895;-69
2021/04/17 11:11:21;;;;;;;3.83;1.70;;;;;;;13.77;39.59;101583.84;4885135;29;20227;-69
2021/04/17 11:13:55;;;;;;;3.73;1.73;;;;;;;13.88;39.25;101569.91;4912394;29;20200;-69
2021/04/17 11:16:36;;;;;;;3.53;1.50;;;;;;;13.91;39.15;101569.38;4898008;29;20599;-69
2021/04/17 11:19:02;;;;;;;2.10;1.50;;;;;;;13.90;39.20;101570.50;4920471;29;20298;-71
2021/04/17 11:21:31;;;;;;;3.73;1.90;;;;;;;13.49;40.28;101576.94;4914068;29;20294;-70
2021/04/17 11:24:00;;;;;;;4.53;1.90;;;;;;;13.37;40.38;101577.44;4928979;29;20188;-70
2021/04/17 11:26:39;;;;;;;4.20;1.77;;;;;;;13.79;40.51;101577.03;4926117;29;20780;-68
2021/04/17 11:29:08;;;;;;;3.50;1.90;;;;;;;14.11;39.61;101580.38;4927520;29;20184;-69
2021/04/17 11:31:38;;;;;;;3.50;1.90;;;;;;;14.47;39.15;101575.44;4931636;29;20853;-68
2021/04/17 11:34:06;;;;;;;3.77;1.60;;;;;;;14.31;40.67;101564.78;4935738;29;20692;-68
2021/04/17 11:36:32;;;;;;;3.83;2.00;;;;;;;14.08;41.06;101580.91;4932466;29;20253;-70
2021/04/17 11:39:03;;;;;;;2.97;2.10;;;;;;;14.18;40.75;101575.44;4928174;29;20258;-69
2021/04/17 11:41:31;;;;;;;3.40;1.80;;;;;;;13.44;41.17;101583.47;4916843;29;20724;-70